• Join FlightAware (Why Join?)
  • Login
  • US Flag 
02:02PM EDT


 

Airport Tracker/Info


-or-


 

Live Flight TrackerFlight Track Log ✈ AWE3208 ✈ 17-Dec-2013 ✈ KCMH - KPHL

Flight Track Log - Related Links

Times and Time Zones

All times are in EST time to prevent confusion due to time zone crossing. See the AWE3208 flight status page for this flight to view local times or setup timezone preferences in your user account.

Time Position Orientation Groundspeed Altitude Reporting Facility
EST Latitude Longitude Course Direction KTS MPH feet Rate Location/Type
09:17PM 40.0028 -82.9264 77° East 130 150 2,100  Level Indianapolis Center
09:17PM 40.0050 -82.9858 273° West 184 212 4,000 2,400 Climbing Indianapolis Center
09:18PM 40.0417 -83.0228 322° Northwest 258 297 6,500 2,820 Climbing Indianapolis Center
09:18PM 40.0522 -83.0181 19° North 232 267 6,900 2,280 Climbing Indianapolis Center
09:19PM 40.0020 -82.5569 79° East  Level Estimated
09:20PM 40.0238 -82.4487 75° East  Level FlightAware Approximate
09:20PM 40.0750 -82.9194 73° East 295 339 9,200  Level Indianapolis Center
09:21PM 40.0249 -82.3369 82° East  Level Estimated
09:21PM 40.0800 -82.8114 87° East 299 344 11,200  Level Indianapolis Center
09:22PM 40.0443 -82.2280 77° East  Level FlightAware Approximate
09:22PM 40.0914 -82.6981 82° East 314 361 13,700  Level Indianapolis Center
09:23PM 40.1022 -82.5786 83° East 329 379 16,000 1,680 Climbing Indianapolis Center
09:24PM 40.1139 -82.4447 83° East 364 419 17,200 1,500 Climbing Indianapolis Center
09:25PM 40.1264 -82.3006 83° East 395 455 19,100 1,860 Climbing Indianapolis Center
09:26PM 40.1386 -82.1503 84° East 412 474 21,100 2,040 Climbing Indianapolis Center
09:27PM 40.1542 -81.9644 84° East 428 493 23,300 1,800 Climbing Indianapolis Center
09:28PM 40.1664 -81.8042 84° East 440 506 24,800 1,380 Climbing Indianapolis Center
09:29PM 40.1786 -81.6486 84° East 453 521 26,200 1,260 Climbing Indianapolis Center
09:30PM 40.1933 -81.4775 84° East 467 537 27,400 1,080 Climbing Indianapolis Center
09:31PM 40.2061 -81.3039 84° East 475 547 28,500 1,200 Climbing Indianapolis Center
09:32PM 40.2189 -81.1278 85° East 481 554 29,900 1,200 Climbing Indianapolis Center
09:33PM 40.2342 -80.9261 84° East 477 549 31,000 480 Climbing Indianapolis Center
09:34PM 40.2469 -80.7547 84° East 491 565 31,000  Level Cleveland Center
09:35PM 40.2606 -80.5683 84° East 515 593 31,000  Level Cleveland Center
09:36PM 40.2681 -80.3822 87° East 519 597 31,000  Level Cleveland Center
09:37PM 40.2775 -80.1733 87° East 493 567 31,000  Level Cleveland Center
09:38PM 40.2817 -80.0033 88° East 483 556 31,000  Level Cleveland Center
09:39PM 40.2869 -79.8278 88° East 489 563 31,000  Level Cleveland Center
09:40PM 40.2931 -79.6533 87° East 486 559 31,000  Level Cleveland Center
09:41PM 40.2992 -79.4769 87° East 486 559 31,000  Level Cleveland Center
09:42PM 40.3053 -79.2786 88° East 487 560 31,000  Level Cleveland Center
09:43PM 40.3097 -79.1047 88° East 483 556 31,000  Level Cleveland Center
09:44PM 40.3142 -78.9317 88° East 480 552 31,000  Level Cleveland Center
09:45PM 40.3181 -78.7581 88° East 482 555 31,000 -300 Level Cleveland Center
09:46PM 40.3167 -78.5467 90° East 485 558 30,400 -1,140 Descending Cleveland Center
09:47PM 40.3161 -78.3700 90° East 489 563 28,700 -1,680 Descending Cleveland Center
09:48PM 40.3153 -78.1933 90° East 490 564 27,000 -1,680 Descending Cleveland Center
09:49PM 40.3142 -78.0267 90° East 467 537 25,400 -1,140 Descending Cleveland Center
09:50PM 40.3125 -77.8747 91° East 429 494 24,800 -840 Descending Cleveland Center
09:51PM 40.3111 -77.7264 91° East 415 478 23,800 -1,080 Descending Cleveland Center
09:52PM 40.3089 -77.5433 91° East 418 481 22,600 -1,080 Descending New York Center
09:53PM 40.3069 -77.3961 91° East 412 474 21,600 -1,020 Descending New York Center
09:54PM 40.3025 -77.2514 92° East 406 467 20,600 -1,020 Descending New York Center
09:55PM 40.3000 -77.1042 91° East 406 467 19,600 -1,380 Descending New York Center
09:56PM 40.2781 -76.9689 102° East 401 461 17,900 -1,860 Descending New York Center
09:57PM 40.2475 -76.8356 107° East 389 448 15,900 -1,980 Descending New York Center
09:58PM 40.2183 -76.7106 107° East 369 425 14,000 -1,920 Descending New York Center
09:59PM 40.1944 -76.6053 107° East 348 400 12,100 -1,500 Descending New York Center
10:00PM 40.1667 -76.4914 108° East 334 384 11,000 -600 Descending New York Center
10:01PM 40.1369 -76.3697 108° East 329 379 10,900 -300 Descending New York Center
10:02PM 40.1175 -76.2539 102° East 329 379 10,400 -540 Descending New York Center
10:03PM 40.1103 -76.1394 95° East 318 366 9,900 -300 Descending New York Center
10:04PM 40.1025 -76.0331 95° East 318 366 9,900 -300 Level New York Center
10:05PM 40.0933 -75.9100 96° East 306 352 9,400 -720 Descending New York Center
10:06PM 40.0831 -75.8064 97° East 292 336 8,500 -660 Descending New York Center
10:07PM 40.0789 -75.7111 93° East 292 336 8,100 -240 Descending New York Center
10:08PM 40.0731 -75.5994 94° East 287 330 8,100 -480 Level New York Center
10:09PM 40.0683 -75.5067 94° East 287 330 7,200 -960 Descending New York Center
10:10PM 40.0500 -75.3917 102° East 292 336 6,200 -1,020 Descending New York Center
10:11PM 40.0347 -75.3039 103° East 286 329 5,200 -1,020 Descending New York Center
10:12PM 40.0175 -75.2078 103° East 275 316 4,200 -1,080 Descending New York Center
10:13PM 39.9942 -75.1117 108° East 260 299 3,100 -660 Descending New York Center
10:14PM 39.9433 -75.0706 148° Southeast 223 257 2,900 -480 Descending New York Center
10:15PM 39.9000 -75.1000 208° Southwest 176 203 2,100 -720 Descending Philadelphia TRACON
10:16PM 39.8833 -75.1500 247° West 135 155 1,400 -780 Descending Philadelphia TRACON
10:17PM 39.8833 -75.2000 270° West 136 157 600 -840 Descending Philadelphia TRACON